Time;durP1;ratioP1;P1;durP2;ratioP2;P2;SDS_P1;SDS_P2;PMS_P1;PMS_P2;Temp;Humidity;BMP_temperature;BMP_pressure;BME280_temperature;BME280_humidity;BME280_pressure;Samples;Min_cycle;Max_cycle;Signal;HPM_P1;HPM_P2
2022/06/20 00:00:32;;;;;;;11.20;2.58;;;;;;;;;;5093723;28;20576;-66
2022/06/20 00:02:59;;;;;;;5.35;2.03;;;;;;;;;;5088436;28;20055;-66
2022/06/20 00:05:27;;;;;;;6.65;1.63;;;;;;;;;;5083870;28;20040;-66
2022/06/20 00:07:53;;;;;;;5.82;2.88;;;;;;;;;;5082670;28;20036;-66
2022/06/20 00:10:21;;;;;;;6.68;2.35;;;;;;;;;;5090413;28;20035;-66
2022/06/20 00:12:47;;;;;;;2.90;1.60;;;;;;;;;;5091668;28;20051;-67
2022/06/20 00:15:22;;;;;;;6.43;1.80;;;;;;;;;;5092491;28;20086;-66
2022/06/20 00:17:49;;;;;;;7.68;2.08;;;;;;;;;;5087861;28;20036;-66
2022/06/20 00:20:15;;;;;;;7.45;2.00;;;;;;;;;;5095053;28;20039;-66
2022/06/20 00:22:41;;;;;;;3.08;1.80;;;;;;;;;;5093789;28;20172;-66
2022/06/20 00:25:08;;;;;;;4.75;1.80;;;;;;;;;;5084691;28;20048;-65
2022/06/20 00:27:34;;;;;;;5.47;2.65;;;;;;;;;;5093918;28;20044;-64
2022/06/20 00:30:01;;;;;;;12.00;2.42;;;;;;;;;;5099966;28;20449;-64
2022/06/20 00:32:27;;;;;;;4.38;2.10;;;;;;;;;;5086694;28;20040;-65
2022/06/20 00:34:53;;;;;;;9.88;2.97;;;;;;;;;;5091790;28;20088;-64
2022/06/20 00:37:20;;;;;;;7.25;2.38;;;;;;;;;;5098743;28;20040;-66
2022/06/20 00:39:47;;;;;;;5.20;2.22;;;;;;;;;;5093886;28;20409;-67
2022/06/20 00:42:13;;;;;;;4.03;1.80;;;;;;;;;;5087911;28;20054;-66
2022/06/20 00:44:42;;;;;;;3.67;1.90;;;;;;;;;;5098381;28;20085;-66
2022/06/20 00:47:20;;;;;;;4.97;1.98;;;;;;;;;;5104003;28;20467;-66
2022/06/20 00:49:51;;;;;;;7.50;1.60;;;;;;;;;;5084283;28;20032;-66
2022/06/20 00:52:30;;;;;;;5.25;2.03;;;;;;;;;;5089807;28;20043;-67
2022/06/20 00:55:04;;;;;;;6.55;1.92;;;;;;;;;;5084851;28;20093;-67
2022/06/20 00:57:49;;;;;;;8.85;2.70;;;;;;;;;;5088711;28;20083;-66
2022/06/20 01:00:23;;;;;;;6.57;2.17;;;;;;;;;;5083301;28;20071;-66
2022/06/20 01:02:51;;;;;;;4.32;2.15;;;;;;;;;;5097620;28;20486;-66
2022/06/20 01:05:25;;;;;;;5.70;1.92;;;;;;;;;;5086936;28;20044;-66
2022/06/20 01:07:57;;;;;;;10.77;2.35;;;;;;;;;;5087977;28;20054;-66
2022/06/20 01:10:24;;;;;;;7.93;2.53;;;;;;;;;;5099093;28;20653;-66
2022/06/20 01:12:53;;;;;;;5.15;1.67;;;;;;;;;;5091029;28;20486;-66
2022/06/20 01:15:21;;;;;;;4.10;2.38;;;;;;;;;;5088047;28;20516;-67
2022/06/20 01:17:48;;;;;;;8.10;2.08;;;;;;;;;;5093215;28;20077;-66
2022/06/20 01:20:25;;;;;;;3.75;2.42;;;;;;;;;;5088796;28;20032;-66
2022/06/20 01:22:59;;;;;;;4.93;2.33;;;;;;;;;;5085046;28;20036;-67
2022/06/20 01:25:38;;;;;;;3.60;1.65;;;;;;;;;;5080899;28;20493;-67
2022/06/20 01:28:06;;;;;;;4.18;1.95;;;;;;;;;;5096971;28;20048;-66
2022/06/20 01:30:35;;;;;;;2.83;1.90;;;;;;;;;;5091749;28;20319;-67
2022/06/20 01:33:01;;;;;;;6.43;2.28;;;;;;;;;;5089569;28;20505;-66
2022/06/20 01:38:14;;;;;;;5.40;2.67;;;;;;;;;;5090547;28;20044;-66
2022/06/20 01:42:18;;;;;;;7.68;2.05;;;;;;;;;;5097336;28;20545;-66
2022/06/20 01:43:31;;;;;;;7.57;2.65;;;;;;;;;;5086169;28;20050;-67
2022/06/20 01:45:58;;;;;;;6.72;1.95;;;;;;;;;;5085610;28;20044;-66
2022/06/20 01:48:24;;;;;;;5.53;1.90;;;;;;;;;;5070285;28;20055;-66
2022/06/20 01:50:50;;;;;;;5.55;2.05;;;;;;;;;;5080222;28;20052;-66
2022/06/20 01:53:18;;;;;;;6.68;1.88;;;;;;;;;;5079981;28;20082;-66
2022/06/20 01:55:47;;;;;;;4.47;1.90;;;;;;;;;;5088324;28;20135;-67
2022/06/20 01:58:22;;;;;;;6.18;1.98;;;;;;;;;;5087882;28;20122;-66
2022/06/20 02:00:48;;;;;;;6.50;2.20;;;;;;;;;;5081452;28;20028;-66
2022/06/20 02:03:17;;;;;;;7.18;2.63;;;;;;;;;;5104173;28;20122;-67
2022/06/20 02:05:44;;;;;;;4.90;2.25;;;;;;;;;;5095707;28;20039;-66
2022/06/20 02:08:10;;;;;;;4.85;1.95;;;;;;;;;;5082824;28;20056;-67
2022/06/20 02:10:37;;;;;;;5.20;1.83;;;;;;;;;;5091565;28;20035;-66
2022/06/20 02:13:03;;;;;;;6.25;2.25;;;;;;;;;;5086565;28;20186;-66
2022/06/20 02:15:32;;;;;;;6.10;2.20;;;;;;;;;;5079425;28;20051;-66
2022/06/20 02:18:00;;;;;;;2.47;1.52;;;;;;;;;;5092593;28;20093;-66
2022/06/20 02:20:29;;;;;;;3.95;2.00;;;;;;;;;;5089034;28;20046;-66
2022/06/20 02:22:57;;;;;;;8.30;2.10;;;;;;;;;;5080588;28;20468;-67
2022/06/20 02:25:26;;;;;;;3.85;1.90;;;;;;;;;;5070165;28;20379;-67
2022/06/20 02:27:54;;;;;;;3.08;1.52;;;;;;;;;;5095789;28;20402;-66
2022/06/20 02:30:20;;;;;;;9.45;3.42;;;;;;;;;;5068170;28;20089;-66
2022/06/20 02:32:50;;;;;;;4.20;1.83;;;;;;;;;;5095966;28;20442;-67
2022/06/20 02:35:18;;;;;;;3.30;2.17;;;;;;;;;;5096715;28;20456;-66
2022/06/20 02:37:45;;;;;;;3.15;1.80;;;;;;;;;;5094225;28;20048;-67
2022/06/20 02:40:13;;;;;;;6.05;2.78;;;;;;;;;;5084084;28;20141;-66
2022/06/20 02:42:55;;;;;;;5.00;2.40;;;;;;;;;;5090266;28;20043;-66
2022/06/20 02:45:22;;;;;;;9.32;2.70;;;;;;;;;;5078239;28;20542;-66
2022/06/20 02:47:49;;;;;;;10.32;2.70;;;;;;;;;;5091415;28;20036;-67
2022/06/20 02:50:18;;;;;;;3.65;2.60;;;;;;;;;;5087019;28;20096;-67
2022/06/20 02:52:47;;;;;;;5.93;2.80;;;;;;;;;;5080330;28;20031;-66
2022/06/20 02:55:16;;;;;;;6.15;1.98;;;;;;;;;;5086992;28;20040;-66
2022/06/20 02:57:48;;;;;;;4.97;2.47;;;;;;;;;;5097707;28;20129;-66
2022/06/20 03:00:18;;;;;;;10.63;2.35;;;;;;;;;;5100626;28;20043;-66
2022/06/20 03:02:46;;;;;;;4.68;2.38;;;;;;;;;;5083925;28;20032;-66
2022/06/20 03:05:12;;;;;;;8.15;2.63;;;;;;;;;;5089762;28;20044;-66
2022/06/20 03:07:41;;;;;;;4.38;2.45;;;;;;;;;;5082524;28;20072;-66
2022/06/20 03:10:13;;;;;;;4.75;2.60;;;;;;;;;;5075928;28;20070;-67
2022/06/20 03:12:39;;;;;;;5.80;2.83;;;;;;;;;;5087610;28;20513;-66
2022/06/20 03:15:05;;;;;;;14.23;2.83;;;;;;;;;;5085204;28;20048;-67
2022/06/20 03:17:32;;;;;;;9.27;3.72;;;;;;;;;;5092183;28;20083;-66
2022/06/20 03:20:00;;;;;;;8.95;2.65;;;;;;;;;;5082631;28;20048;-66
2022/06/20 03:22:36;;;;;;;4.43;3.28;;;;;;;;;;5064241;28;20051;-66
2022/06/20 03:25:03;;;;;;;6.07;2.70;;;;;;;;;;5096169;28;20036;-66
2022/06/20 03:27:30;;;;;;;6.20;2.80;;;;;;;;;;5087041;28;20472;-66
2022/06/20 03:29:59;;;;;;;7.03;2.95;;;;;;;;;;5083125;28;20071;-67
2022/06/20 03:32:26;;;;;;;6.00;3.10;;;;;;;;;;5076259;28;20075;-66
2022/06/20 03:34:53;;;;;;;7.40;3.05;;;;;;;;;;5087980;28;20036;-66
2022/06/20 03:37:19;;;;;;;11.50;2.97;;;;;;;;;;5101823;28;20118;-66
2022/06/20 03:39:46;;;;;;;7.45;3.42;;;;;;;;;;5107466;28;20047;-66
2022/06/20 03:42:13;;;;;;;9.00;4.10;;;;;;;;;;5088228;28;20040;-66
2022/06/20 03:44:58;;;;;;;7.05;3.53;;;;;;;;;;5084665;28;20090;-66
2022/06/20 03:47:31;;;;;;;6.88;3.20;;;;;;;;;;5090526;28;20040;-66
2022/06/20 03:50:10;;;;;;;8.60;3.47;;;;;;;;;;5103123;28;20089;-66
2022/06/20 03:52:41;;;;;;;7.68;3.38;;;;;;;;;;5086690;28;20040;-66
2022/06/20 03:55:07;;;;;;;5.53;3.00;;;;;;;;;;5102163;28;20043;-66
2022/06/20 03:57:37;;;;;;;5.82;3.22;;;;;;;;;;5087975;28;20043;-67
2022/06/20 04:00:08;;;;;;;5.10;3.42;;;;;;;;;;5091666;28;20097;-67
2022/06/20 04:02:37;;;;;;;6.40;3.58;;;;;;;;;;5095826;28;20028;-66
2022/06/20 04:05:11;;;;;;;7.47;3.00;;;;;;;;;;5095336;28;20048;-66
2022/06/20 04:07:49;;;;;;;14.77;4.60;;;;;;;;;;5085885;28;20047;-66
2022/06/20 04:13:14;;;;;;;6.80;3.28;;;;;;;;;;5077397;28;20135;-66
2022/06/20 04:15:54;;;;;;;10.68;3.80;;;;;;;;;;5097740;28;20047;-66
2022/06/20 04:18:31;;;;;;;7.63;4.13;;;;;;;;;;5090996;28;20406;-66
2022/06/20 04:20:57;;;;;;;8.80;3.58;;;;;;;;;;5091071;28;20034;-66
2022/06/20 04:23:42;;;;;;;10.90;4.82;;;;;;;;;;5085799;28;20127;-67
2022/06/20 04:26:15;;;;;;;8.10;4.45;;;;;;;;;;5077395;28;20163;-66
2022/06/20 04:28:45;;;;;;;6.60;4.57;;;;;;;;;;5085649;28;20126;-66
2022/06/20 04:31:33;;;;;;;7.07;3.63;;;;;;;;;;5096948;28;20045;-66
2022/06/20 04:34:03;;;;;;;6.65;3.60;;;;;;;;;;5089066;28;20049;-67
2022/06/20 04:36:38;;;;;;;12.95;4.45;;;;;;;;;;5093416;28;20032;-66
2022/06/20 04:39:21;;;;;;;7.82;4.07;;;;;;;;;;5086756;28;20044;-67
2022/06/20 04:41:52;;;;;;;10.18;5.38;;;;;;;;;;5089072;28;20524;-66
2022/06/20 04:44:27;;;;;;;6.72;4.22;;;;;;;;;;5086550;28;20036;-67
2022/06/20 04:47:15;;;;;;;10.55;3.80;;;;;;;;;;5089219;28;20124;-65
2022/06/20 04:49:42;;;;;;;10.13;4.50;;;;;;;;;;5092549;28;20071;-66
2022/06/20 04:52:10;;;;;;;9.38;3.83;;;;;;;;;;5090011;28;20039;-66
2022/06/20 04:54:37;;;;;;;11.27;4.50;;;;;;;;;;5086794;28;20096;-66
2022/06/20 04:57:03;;;;;;;7.07;3.70;;;;;;;;;;5097936;28;20079;-67
2022/06/20 04:59:30;;;;;;;11.88;4.05;;;;;;;;;;5088090;28;20036;-66
2022/06/20 05:01:58;;;;;;;7.13;4.20;;;;;;;;;;5090206;28;20047;-66
2022/06/20 05:04:28;;;;;;;9.35;4.05;;;;;;;;;;5090893;28;20036;-66
2022/06/20 05:06:56;;;;;;;9.88;3.90;;;;;;;;;;5089007;28;20398;-66
2022/06/20 05:09:43;;;;;;;6.53;3.58;;;;;;;;;;5086958;28;20040;-66
2022/06/20 05:12:21;;;;;;;10.45;4.30;;;;;;;;;;5071504;28;20075;-66
2022/06/20 05:14:52;;;;;;;9.73;3.30;;;;;;;;;;5087788;28;20036;-67
2022/06/20 05:17:20;;;;;;;9.30;3.92;;;;;;;;;;5086604;28;20090;-67
2022/06/20 05:19:49;;;;;;;8.63;4.13;;;;;;;;;;5082942;28;20034;-66
2022/06/20 05:22:19;;;;;;;16.75;3.75;;;;;;;;;;5093112;28;20040;-66
2022/06/20 05:24:46;;;;;;;8.05;3.92;;;;;;;;;;5077766;28;20055;-66
2022/06/20 05:27:27;;;;;;;8.05;4.28;;;;;;;;;;5095535;28;20047;-66
2022/06/20 05:29:54;;;;;;;10.32;4.57;;;;;;;;;;5088429;28;20071;-66
2022/06/20 05:32:24;;;;;;;9.40;4.50;;;;;;;;;;5067889;28;20414;-66
2022/06/20 05:34:50;;;;;;;12.18;4.80;;;;;;;;;;5088261;28;20047;-66
2022/06/20 05:37:21;;;;;;;8.43;3.38;;;;;;;;;;5093852;28;20282;-66
2022/06/20 05:39:50;;;;;;;7.68;3.33;;;;;;;;;;5100262;28;20096;-66
2022/06/20 05:42:17;;;;;;;13.05;4.68;;;;;;;;;;5083921;28;20089;-67
2022/06/20 05:44:44;;;;;;;7.72;4.28;;;;;;;;;;5095469;28;20040;-66
2022/06/20 05:47:20;;;;;;;6.85;3.60;;;;;;;;;;5089164;28;20119;-66
2022/06/20 05:49:50;;;;;;;19.65;4.45;;;;;;;;;;5074959;28;20036;-67
2022/06/20 05:52:19;;;;;;;6.28;3.83;;;;;;;;;;5094954;28;20060;-66
2022/06/20 05:55:14;;;;;;;10.00;3.28;;;;;;;;;;5096005;28;20036;-67
2022/06/20 05:57:41;;;;;;;6.95;3.13;;;;;;;;;;5070767;28;20612;-66
2022/06/20 06:00:16;;;;;;;9.85;3.22;;;;;;;;;;5079060;28;20082;-66
2022/06/20 06:02:43;;;;;;;16.73;4.72;;;;;;;;;;5099389;28;20594;-66
2022/06/20 06:05:18;;;;;;;7.22;3.20;;;;;;;;;;5091534;28;20046;-67
2022/06/20 06:07:44;;;;;;;10.43;3.55;;;;;;;;;;5090261;28;20032;-66
2022/06/20 06:10:26;;;;;;;11.02;4.53;;;;;;;;;;5082343;28;20517;-66
2022/06/20 06:12:56;;;;;;;7.90;3.50;;;;;;;;;;5077155;28;20063;-66
2022/06/20 06:15:34;;;;;;;8.73;3.78;;;;;;;;;;5096751;28;20235;-66
2022/06/20 06:18:03;;;;;;;5.45;3.33;;;;;;;;;;5095542;28;20111;-66
2022/06/20 06:20:30;;;;;;;12.02;4.15;;;;;;;;;;5082156;28;20050;-66
2022/06/20 06:23:03;;;;;;;9.73;4.13;;;;;;;;;;5086857;28;20082;-66
2022/06/20 06:25:34;;;;;;;9.05;3.20;;;;;;;;;;5082916;28;20044;-67
2022/06/20 06:28:06;;;;;;;19.13;4.82;;;;;;;;;;5099781;28;20033;-67
2022/06/20 06:30:35;;;;;;;10.30;3.53;;;;;;;;;;5097076;28;20036;-66
2022/06/20 06:33:12;;;;;;;12.02;4.65;;;;;;;;;;5083022;28;20088;-67
2022/06/20 06:35:44;;;;;;;9.65;4.30;;;;;;;;;;5077168;28;20089;-66
2022/06/20 06:38:37;;;;;;;7.18;3.45;;;;;;;;;;5090512;28;20442;-67
2022/06/20 06:41:06;;;;;;;6.80;3.60;;;;;;;;;;5078252;28;20165;-66
2022/06/20 06:43:39;;;;;;;7.85;3.95;;;;;;;;;;5097734;28;20040;-67
2022/06/20 06:46:15;;;;;;;7.07;3.38;;;;;;;;;;5078839;28;20074;-67
2022/06/20 06:48:41;;;;;;;10.25;3.67;;;;;;;;;;5097229;28;20043;-67
2022/06/20 06:51:15;;;;;;;9.80;3.70;;;;;;;;;;5085785;28;20581;-67
2022/06/20 06:53:48;;;;;;;7.00;3.22;;;;;;;;;;5070546;28;20043;-66
2022/06/20 06:56:20;;;;;;;10.10;3.67;;;;;;;;;;5086961;28;20135;-66
2022/06/20 06:59:07;;;;;;;8.75;4.18;;;;;;;;;;5096689;28;20039;-67
2022/06/20 07:02:00;;;;;;;4.80;2.85;;;;;;;;;;5097040;28;20123;-67
2022/06/20 07:04:33;;;;;;;7.55;2.45;;;;;;;;;;5086828;28;20052;-67
2022/06/20 07:07:05;;;;;;;6.05;2.88;;;;;;;;;;5086237;28;20044;-67
2022/06/20 07:09:35;;;;;;;4.75;2.55;;;;;;;;;;5077878;28;20496;-67
2022/06/20 07:12:08;;;;;;;7.47;2.40;;;;;;;;;;5104049;28;20127;-67
2022/06/20 07:14:40;;;;;;;6.03;2.22;;;;;;;;;;5092275;28;20475;-67
2022/06/20 07:17:11;;;;;;;7.35;2.67;;;;;;;;;;5093081;28;20655;-67
2022/06/20 07:19:45;;;;;;;6.60;2.63;;;;;;;;;;5090942;28;20032;-66
2022/06/20 07:22:14;;;;;;;7.07;3.08;;;;;;;;;;5082398;28;20489;-66
2022/06/20 07:24:41;;;;;;;16.20;3.88;;;;;;;;;;5091413;28;20131;-67
2022/06/20 07:27:18;;;;;;;7.00;2.25;;;;;;;;;;5099740;28;20040;-67
2022/06/20 07:29:49;;;;;;;5.13;2.78;;;;;;;;;;5090959;28;20505;-67
2022/06/20 07:32:35;;;;;;;4.20;2.00;;;;;;;;;;5087367;28;20042;-67
2022/06/20 07:35:03;;;;;;;8.07;1.90;;;;;;;;;;5092140;28;20106;-66
2022/06/20 07:37:36;;;;;;;4.32;2.10;;;;;;;;;;5090376;28;20039;-67
2022/06/20 07:40:05;;;;;;;7.32;2.00;;;;;;;;;;5099009;28;20043;-67
2022/06/20 07:42:39;;;;;;;4.38;2.25;;;;;;;;;;5070739;28;20036;-66
2022/06/20 07:45:11;;;;;;;7.47;2.88;;;;;;;;;;5079527;28;20079;-67
2022/06/20 07:47:41;;;;;;;6.18;3.35;;;;;;;;;;5084085;28;20085;-67
2022/06/20 07:50:16;;;;;;;8.02;2.65;;;;;;;;;;5094553;28;20047;-66
2022/06/20 07:52:47;;;;;;;5.53;2.00;;;;;;;;;;5097879;28;20127;-66
2022/06/20 07:55:19;;;;;;;4.40;2.53;;;;;;;;;;5090798;28;20084;-66
2022/06/20 07:57:49;;;;;;;5.10;2.20;;;;;;;;;;5083853;28;20045;-67
2022/06/20 08:00:22;;;;;;;4.32;1.83;;;;;;;;;;5076639;28;20483;-67
2022/06/20 08:03:03;;;;;;;6.70;2.42;;;;;;;;;;5081258;28;20115;-67
2022/06/20 08:05:49;;;;;;;6.07;2.50;;;;;;;;;;5102719;28;20493;-66
2022/06/20 08:08:22;;;;;;;5.47;2.90;;;;;;;;;;5094010;28;20486;-66
2022/06/20 08:10:51;;;;;;;8.77;2.92;;;;;;;;;;5090922;28;20047;-66
2022/06/20 08:13:22;;;;;;;6.90;2.53;;;;;;;;;;5075960;28;20043;-67
2022/06/20 08:15:51;;;;;;;5.22;2.25;;;;;;;;;;5096938;28;20412;-66
2022/06/20 08:18:18;;;;;;;4.70;2.45;;;;;;;;;;5095095;28;20033;-67
2022/06/20 08:20:50;;;;;;;4.63;2.20;;;;;;;;;;5102059;28;20031;-66
2022/06/20 08:23:21;;;;;;;5.63;2.45;;;;;;;;;;5087040;28;20494;-66
2022/06/20 08:25:51;;;;;;;5.80;2.72;;;;;;;;;;5090162;28;20040;-67
2022/06/20 08:28:17;;;;;;;4.30;2.40;;;;;;;;;;5100157;28;20047;-67
2022/06/20 08:30:52;;;;;;;4.75;2.35;;;;;;;;;;5098579;28;20055;-67
2022/06/20 08:33:36;;;;;;;8.88;2.83;;;;;;;;;;5088311;28;20619;-66
2022/06/20 08:36:02;;;;;;;4.82;2.45;;;;;;;;;;5099839;28;20520;-66
2022/06/20 08:38:35;;;;;;;5.25;2.63;;;;;;;;;;5096782;28;20105;-66
2022/06/20 08:41:19;;;;;;;6.05;2.60;;;;;;;;;;5091660;28;20505;-66
2022/06/20 08:43:45;;;;;;;5.07;2.00;;;;;;;;;;5092677;28;20032;-67
2022/06/20 08:46:20;;;;;;;5.55;3.63;;;;;;;;;;5099222;28;20067;-66
2022/06/20 08:49:05;;;;;;;4.60;2.45;;;;;;;;;;5085069;28;20052;-66
2022/06/20 08:51:32;;;;;;;5.45;2.33;;;;;;;;;;5080393;28;20063;-67
2022/06/20 08:54:16;;;;;;;6.93;2.85;;;;;;;;;;5076890;28;20098;-65
2022/06/20 08:56:42;;;;;;;5.97;2.90;;;;;;;;;;5070473;28;20060;-67
2022/06/20 08:59:08;;;;;;;6.15;2.15;;;;;;;;;;5082902;28;20036;-67
2022/06/20 09:01:53;;;;;;;12.80;2.60;;;;;;;;;;5094612;28;20524;-67
2022/06/20 09:04:42;;;;;;;4.20;2.30;;;;;;;;;;5093472;28;20126;-66
2022/06/20 09:07:14;;;;;;;3.80;1.67;;;;;;;;;;5084797;28;20059;-66
2022/06/20 09:10:01;;;;;;;6.25;2.40;;;;;;;;;;5083414;28;20527;-66
2022/06/20 09:12:42;;;;;;;5.32;2.55;;;;;;;;;;5086404;28;20093;-66
2022/06/20 09:15:27;;;;;;;5.70;2.60;;;;;;;;;;5082362;28;20319;-67
2022/06/20 09:18:05;;;;;;;10.13;2.85;;;;;;;;;;5091876;28;20040;-66
2022/06/20 09:20:52;;;;;;;4.82;2.47;;;;;;;;;;5086145;28;20498;-66
2022/06/20 09:23:37;;;;;;;5.30;2.15;;;;;;;;;;5096184;28;20047;-66
2022/06/20 09:26:06;;;;;;;5.93;2.50;;;;;;;;;;5087163;28;20503;-66
2022/06/20 09:28:32;;;;;;;4.68;2.65;;;;;;;;;;5081407;28;20032;-66
2022/06/20 09:31:21;;;;;;;8.88;2.60;;;;;;;;;;5091022;28;20127;-66
2022/06/20 09:34:07;;;;;;;7.63;2.03;;;;;;;;;;5088709;28;20123;-66
2022/06/20 09:36:42;;;;;;;4.68;1.88;;;;;;;;;;5071483;28;20118;-67
2022/06/20 09:39:30;;;;;;;4.50;2.00;;;;;;;;;;5074309;28;20035;-66
2022/06/20 09:41:59;;;;;;;4.70;2.00;;;;;;;;;;5083286;28;20036;-66
2022/06/20 09:44:31;;;;;;;4.80;1.98;;;;;;;;;;5082948;28;20424;-66
2022/06/20 09:46:58;;;;;;;7.80;2.40;;;;;;;;;;5090722;28;20050;-66
2022/06/20 09:49:27;;;;;;;7.32;2.60;;;;;;;;;;5083424;28;20473;-67
2022/06/20 09:52:17;;;;;;;6.10;2.65;;;;;;;;;;5093835;28;20031;-66
2022/06/20 09:55:02;;;;;;;9.52;4.03;;;;;;;;;;5084813;28;20524;-66
2022/06/20 09:57:48;;;;;;;5.68;2.63;;;;;;;;;;5084719;28;20043;-67
2022/06/20 10:00:20;;;;;;;6.20;3.05;;;;;;;;;;5078500;28;20394;-66
2022/06/20 10:03:05;;;;;;;12.30;2.92;;;;;;;;;;5090626;28;20055;-66
2022/06/20 10:05:34;;;;;;;7.97;4.10;;;;;;;;;;5084483;28;20139;-66
2022/06/20 10:08:03;;;;;;;7.05;2.97;;;;;;;;;;5095616;28;20044;-66
2022/06/20 10:10:34;;;;;;;8.77;3.22;;;;;;;;;;5090358;28;20086;-66
2022/06/20 10:13:08;;;;;;;6.88;2.15;;;;;;;;;;5075406;28;20036;-66
2022/06/20 10:15:49;;;;;;;6.88;2.55;;;;;;;;;;5086129;28;20039;-66
2022/06/20 10:18:18;;;;;;;9.30;3.25;;;;;;;;;;5097324;28;20032;-66
2022/06/20 10:20:49;;;;;;;9.40;2.88;;;;;;;;;;5096135;28;20039;-66
2022/06/20 10:23:16;;;;;;;7.78;3.03;;;;;;;;;;5086696;28;20086;-66
2022/06/20 10:26:20;;;;;;;5.57;2.50;;;;;;;;;;5089397;28;20450;-66
2022/06/20 10:28:56;;;;;;;4.80;2.35;;;;;;;;;;5020408;28;20075;-66
2022/06/20 10:31:34;;;;;;;4.25;2.28;;;;;;;;;;5035720;28;20119;-67
2022/06/20 10:34:10;;;;;;;5.50;2.28;;;;;;;;;;5076513;28;20052;-66
2022/06/20 10:36:48;;;;;;;5.80;3.00;;;;;;;;;;5083481;28;20075;-66
2022/06/20 10:39:25;;;;;;;5.07;2.17;;;;;;;;;;5079779;28;20116;-67
2022/06/20 10:41:54;;;;;;;6.90;3.05;;;;;;;;;;5080973;28;20056;-66
2022/06/20 10:44:22;;;;;;;3.83;2.63;;;;;;;;;;5093699;28;20047;-66
2022/06/20 10:47:07;;;;;;;5.63;2.50;;;;;;;;;;5084328;28;20047;-66
2022/06/20 10:49:40;;;;;;;5.50;3.60;;;;;;;;;;5082030;28;20513;-66
2022/06/20 10:52:13;;;;;;;6.03;2.45;;;;;;;;;;5073845;28;20501;-66
2022/06/20 10:54:39;;;;;;;5.32;2.67;;;;;;;;;;5094393;28;20028;-66
2022/06/20 10:57:24;;;;;;;6.05;2.42;;;;;;;;;;5077763;28;20048;-67
2022/06/20 11:00:01;;;;;;;5.40;2.35;;;;;;;;;;5092806;28;20409;-66
2022/06/20 11:02:47;;;;;;;3.25;2.08;;;;;;;;;;5077618;28;20089;-66
2022/06/20 11:05:29;;;;;;;5.32;2.50;;;;;;;;;;5072873;28;20079;-67
2022/06/20 11:08:03;;;;;;;4.22;2.05;;;;;;;;;;5084117;28;20463;-67
2022/06/20 11:10:35;;;;;;;4.50;2.55;;;;;;;;;;5098273;28;20067;-67
2022/06/20 11:13:20;;;;;;;5.82;2.35;;;;;;;;;;5085239;28;20499;-66
2022/06/20 11:15:50;;;;;;;8.43;2.70;;;;;;;;;;5079190;28;20044;-67
2022/06/20 11:18:19;;;;;;;5.38;2.25;;;;;;;;;;5080758;28;20040;-66
2022/06/20 11:20:48;;;;;;;4.97;2.47;;;;;;;;;;5087490;28;20039;-66
2022/06/20 11:23:17;;;;;;;4.25;2.17;;;;;;;;;;5085703;28;20415;-66
2022/06/20 11:25:52;;;;;;;5.28;2.15;;;;;;;;;;5096721;28;20038;-66
2022/06/20 11:28:27;;;;;;;6.57;3.10;;;;;;;;;;5075829;28;20487;-66
2022/06/20 11:30:56;;;;;;;4.40;2.28;;;;;;;;;;5060005;28;20055;-66
2022/06/20 11:34:00;;;;;;;5.97;2.15;;;;;;;;;;5081875;28;20531;-67
2022/06/20 11:36:14;;;;;;;7.93;3.03;;;;;;;;;;5081939;28;20056;-66
2022/06/20 11:38:50;;;;;;;3.88;2.45;;;;;;;;;;5099098;28;20043;-66
2022/06/20 11:41:17;;;;;;;3.85;2.55;;;;;;;;;;5097803;28;20417;-66
2022/06/20 11:44:06;;;;;;;6.88;2.03;;;;;;;;;;5088579;28;20127;-66
2022/06/20 11:46:45;;;;;;;8.35;2.58;;;;;;;;;;5078042;28;20036;-66
2022/06/20 11:49:19;;;;;;;3.97;2.42;;;;;;;;;;5071378;28;20086;-66
2022/06/20 11:51:51;;;;;;;6.35;2.30;;;;;;;;;;5087171;28;20426;-66
2022/06/20 11:54:20;;;;;;;7.75;2.10;;;;;;;;;;5092601;28;20036;-66
2022/06/20 11:56:55;;;;;;;5.45;2.05;;;;;;;;;;5076874;28;20589;-66
2022/06/20 11:59:40;;;;;;;3.85;2.03;;;;;;;;;;5087694;28;20036;-66
2022/06/20 12:02:18;;;;;;;4.13;2.28;;;;;;;;;;5082384;28;20037;-66
2022/06/20 12:04:47;;;;;;;5.43;2.40;;;;;;;;;;5078000;28;20075;-67
2022/06/20 12:07:17;;;;;;;3.95;2.15;;;;;;;;;;5094800;28;20477;-67
2022/06/20 12:09:43;;;;;;;3.58;2.05;;;;;;;;;;5095397;28;20047;-66
2022/06/20 12:12:35;;;;;;;7.00;2.72;;;;;;;;;;5083511;28;20102;-65
2022/06/20 12:15:26;;;;;;;6.50;1.93;;;;;;;;;;5073904;28;20062;-67
2022/06/20 12:18:08;;;;;;;3.92;2.33;;;;;;;;;;5098078;28;20046;-67
2022/06/20 12:23:28;;;;;;;3.70;1.80;;;;;;;;;;5077852;28;20475;-66
2022/06/20 12:25:59;;;;;;;3.63;2.40;;;;;;;;;;5089784;28;20197;-66
2022/06/20 12:28:27;;;;;;;4.75;2.47;;;;;;;;;;5100577;28;20100;-66
2022/06/20 12:31:11;;;;;;;3.65;2.20;;;;;;;;;;5096499;28;20485;-66
2022/06/20 12:33:50;;;;;;;7.30;2.30;;;;;;;;;;5088148;28;20040;-67
2022/06/20 12:36:35;;;;;;;4.47;2.13;;;;;;;;;;5079601;28;20085;-66
2022/06/20 12:39:05;;;;;;;9.98;3.53;;;;;;;;;;5087183;28;20070;-67
2022/06/20 12:41:35;;;;;;;3.05;2.10;;;;;;;;;;5087164;28;20039;-66
2022/06/20 12:44:07;;;;;;;5.88;2.47;;;;;;;;;;5086408;28;20043;-66
2022/06/20 12:46:43;;;;;;;5.93;2.47;;;;;;;;;;5105707;28;20439;-67
2022/06/20 12:49:12;;;;;;;4.13;2.55;;;;;;;;;;5083486;28;20051;-67
2022/06/20 12:51:41;;;;;;;7.97;2.72;;;;;;;;;;5093748;28;20051;-66
2022/06/20 12:54:31;;;;;;;4.78;2.17;;;;;;;;;;5064978;28;20067;-66
2022/06/20 12:57:16;;;;;;;5.40;2.08;;;;;;;;;;5095926;28;20087;-67
2022/06/20 13:00:00;;;;;;;8.65;2.10;;;;;;;;;;5094302;28;20031;-67
2022/06/20 13:02:39;;;;;;;5.28;2.60;;;;;;;;;;5093144;28;20034;-67
2022/06/20 13:05:13;;;;;;;4.60;1.92;;;;;;;;;;5076825;28;20298;-67
2022/06/20 13:07:58;;;;;;;8.38;2.42;;;;;;;;;;5073756;28;20062;-66
2022/06/20 13:10:30;;;;;;;5.97;2.25;;;;;;;;;;5094206;28;20168;-66
2022/06/20 13:13:17;;;;;;;4.70;1.90;;;;;;;;;;5092243;28;20510;-66
2022/06/20 13:16:02;;;;;;;4.85;2.55;;;;;;;;;;5092150;28;20075;-66
2022/06/20 13:18:47;;;;;;;6.07;2.10;;;;;;;;;;5083447;28;20509;-66
2022/06/20 13:21:19;;;;;;;5.03;2.47;;;;;;;;;;5092442;28;20627;-66
2022/06/20 13:24:24;;;;;;;5.45;1.80;;;;;;;;;;5082556;28;20039;-66
2022/06/20 13:27:00;;;;;;;5.93;1.73;;;;;;;;;;5047250;28;20037;-66
2022/06/20 13:29:32;;;;;;;4.18;1.70;;;;;;;;;;5023673;28;20573;-67
2022/06/20 13:32:04;;;;;;;3.95;2.28;;;;;;;;;;5059063;28;20409;-66
2022/06/20 13:34:36;;;;;;;2.10;1.42;;;;;;;;;;5085729;28;20032;-74
2022/06/20 13:37:32;;;;;;;4.32;1.95;;;;;;;;;;5093114;28;20042;-73
2022/06/20 13:40:04;;;;;;;5.55;1.80;;;;;;;;;;5076973;28;20048;-73
2022/06/20 13:42:32;;;;;;;4.63;2.50;;;;;;;;;;5089760;28;20497;-73
2022/06/20 13:45:18;;;;;;;11.50;2.60;;;;;;;;;;5086609;28;20079;-73
2022/06/20 13:47:47;;;;;;;4.70;2.80;;;;;;;;;;5082932;28;20035;-73
2022/06/20 13:50:17;;;;;;;6.82;3.33;;;;;;;;;;5077582;28;20083;-73
2022/06/20 13:52:52;;;;;;;6.78;2.80;;;;;;;;;;5080914;28;20031;-73
2022/06/20 13:55:25;;;;;;;4.95;2.33;;;;;;;;;;5086114;28;20055;-72
2022/06/20 13:58:10;;;;;;;7.75;2.53;;;;;;;;;;5090270;28;20047;-73
2022/06/20 14:00:36;;;;;;;4.70;2.40;;;;;;;;;;5085523;28;20068;-73
2022/06/20 14:03:05;;;;;;;4.85;2.70;;;;;;;;;;5089930;28;20067;-73
2022/06/20 14:05:33;;;;;;;6.68;2.80;;;;;;;;;;5084242;28;20036;-73
2022/06/20 14:08:07;;;;;;;5.20;2.30;;;;;;;;;;5092375;28;20078;-73
2022/06/20 14:10:35;;;;;;;3.92;2.20;;;;;;;;;;5077336;28;20118;-73
2022/06/20 14:13:03;;;;;;;4.88;2.03;;;;;;;;;;5081076;28;20040;-73
2022/06/20 14:15:37;;;;;;;4.25;2.03;;;;;;;;;;5077717;28;20454;-73
2022/06/20 14:18:06;;;;;;;4.57;2.10;;;;;;;;;;5090568;28;20089;-73
2022/06/20 14:20:34;;;;;;;3.95;2.05;;;;;;;;;;5092852;28;20031;-72
2022/06/20 14:23:02;;;;;;;5.20;2.33;;;;;;;;;;5086101;28;20036;-74
2022/06/20 14:25:31;;;;;;;3.40;1.75;;;;;;;;;;5091485;28;20156;-72
2022/06/20 14:27:58;;;;;;;2.92;1.85;;;;;;;;;;5085240;28;20127;-73
2022/06/20 14:30:27;;;;;;;4.35;1.80;;;;;;;;;;5080567;28;20044;-73
2022/06/20 14:33:01;;;;;;;5.43;2.35;;;;;;;;;;5090752;28;20052;-73
2022/06/20 14:35:31;;;;;;;4.22;2.60;;;;;;;;;;5081376;28;20032;-73
2022/06/20 14:38:10;;;;;;;6.85;2.22;;;;;;;;;;5096803;28;20114;-73
2022/06/20 14:40:56;;;;;;;3.20;2.15;;;;;;;;;;5090682;28;20216;-73
2022/06/20 14:43:25;;;;;;;4.10;1.92;;;;;;;;;;5083682;28;20048;-73
2022/06/20 14:46:00;;;;;;;3.15;2.20;;;;;;;;;;5100474;28;20138;-73
2022/06/20 14:48:40;;;;;;;4.72;2.55;;;;;;;;;;5094195;28;20463;-73
2022/06/20 14:51:18;;;;;;;7.60;2.90;;;;;;;;;;5084458;28;20037;-74
2022/06/20 14:53:49;;;;;;;5.97;2.40;;;;;;;;;;5086010;28;20085;-73
2022/06/20 14:56:19;;;;;;;7.35;2.28;;;;;;;;;;5078185;28;20390;-72
2022/06/20 14:58:51;;;;;;;7.13;2.80;;;;;;;;;;5088133;28;20048;-73
2022/06/20 15:01:35;;;;;;;6.25;2.55;;;;;;;;;;5090093;28;20123;-73
2022/06/20 15:04:04;;;;;;;7.00;3.03;;;;;;;;;;5081432;28;20051;-73
2022/06/20 15:06:30;;;;;;;9.40;3.42;;;;;;;;;;5088153;28;20044;-72
2022/06/20 15:09:18;;;;;;;8.63;3.75;;;;;;;;;;5085911;28;20231;-72
2022/06/20 15:12:03;;;;;;;5.20;2.80;;;;;;;;;;5082712;28;20458;-73
2022/06/20 15:14:31;;;;;;;12.05;3.40;;;;;;;;;;5078610;28;20036;-73
2022/06/20 15:17:17;;;;;;;3.78;2.50;;;;;;;;;;5091025;28;20067;-73
2022/06/20 15:19:55;;;;;;;5.95;3.47;;;;;;;;;;5086590;28;20123;-73
2022/06/20 15:22:32;;;;;;;5.80;3.00;;;;;;;;;;5086319;28;20039;-74
2022/06/20 15:25:10;;;;;;;5.65;2.75;;;;;;;;;;5087251;28;20583;-73